sensor_id;sensor_type;location;lat;lon;timestamp;P1;durP1;ratioP1;P2;durP2;ratioP2
3667;SDS011;24099;47.102;15.440;2023-07-09T00:02:21;3.95;;;2.13;;
3667;SDS011;24099;47.102;15.440;2023-07-09T00:04:48;2.13;;;1.85;;
3667;SDS011;24099;47.102;15.440;2023-07-09T00:07:21;3.92;;;2.03;;
3667;SDS011;24099;47.102;15.440;2023-07-09T00:09:49;3.08;;;2.30;;
3667;SDS011;24099;47.102;15.440;2023-07-09T00:12:18;3.40;;;2.20;;
3667;SDS011;24099;47.102;15.440;2023-07-09T00:14:45;4.30;;;1.98;;
3667;SDS011;24099;47.102;15.440;2023-07-09T00:17:17;2.97;;;1.92;;
3667;SDS011;24099;47.102;15.440;2023-07-09T00:19:46;3.30;;;2.13;;
3667;SDS011;24099;47.102;15.440;2023-07-09T00:22:14;4.95;;;2.25;;
3667;SDS011;24099;47.102;15.440;2023-07-09T00:24:46;4.03;;;2.13;;
3667;SDS011;24099;47.102;15.440;2023-07-09T00:27:16;3.13;;;2.15;;
3667;SDS011;24099;47.102;15.440;2023-07-09T00:29:44;2.65;;;1.92;;
3667;SDS011;24099;47.102;15.440;2023-07-09T00:32:12;3.78;;;2.15;;
3667;SDS011;24099;47.102;15.440;2023-07-09T00:34:42;5.22;;;2.33;;
3667;SDS011;24099;47.102;15.440;2023-07-09T00:37:14;5.32;;;2.22;;
3667;SDS011;24099;47.102;15.440;2023-07-09T00:39:42;3.05;;;1.90;;
3667;SDS011;24099;47.102;15.440;2023-07-09T00:42:17;2.92;;;2.15;;
3667;SDS011;24099;47.102;15.440;2023-07-09T00:44:45;3.50;;;1.85;;
3667;SDS011;24099;47.102;15.440;2023-07-09T00:47:21;2.90;;;1.90;;
3667;SDS011;24099;47.102;15.440;2023-07-09T00:50:03;3.03;;;1.95;;
3667;SDS011;24099;47.102;15.440;2023-07-09T00:52:35;4.00;;;1.95;;
3667;SDS011;24099;47.102;15.440;2023-07-09T00:55:05;1.98;;;1.77;;
3667;SDS011;24099;47.102;15.440;2023-07-09T00:57:35;3.92;;;2.15;;
3667;SDS011;24099;47.102;15.440;2023-07-09T01:00:05;7.55;;;2.30;;
3667;SDS011;24099;47.102;15.440;2023-07-09T01:02:36;3.22;;;1.90;;
3667;SDS011;24099;47.102;15.440;2023-07-09T01:05:03;4.50;;;2.00;;
3667;SDS011;24099;47.102;15.440;2023-07-09T01:07:31;2.70;;;1.90;;
3667;SDS011;24099;47.102;15.440;2023-07-09T01:09:59;2.72;;;1.90;;
3667;SDS011;24099;47.102;15.440;2023-07-09T01:12:27;4.22;;;1.95;;
3667;SDS011;24099;47.102;15.440;2023-07-09T01:14:57;3.13;;;1.92;;
3667;SDS011;24099;47.102;15.440;2023-07-09T01:17:26;5.63;;;2.13;;
3667;SDS011;24099;47.102;15.440;2023-07-09T01:19:54;5.00;;;2.65;;
3667;SDS011;24099;47.102;15.440;2023-07-09T01:22:23;4.22;;;1.83;;
3667;SDS011;24099;47.102;15.440;2023-07-09T01:24:54;3.20;;;1.90;;
3667;SDS011;24099;47.102;15.440;2023-07-09T01:27:23;3.92;;;2.45;;
3667;SDS011;24099;47.102;15.440;2023-07-09T01:29:52;3.47;;;2.45;;
3667;SDS011;24099;47.102;15.440;2023-07-09T01:32:20;3.83;;;1.98;;
3667;SDS011;24099;47.102;15.440;2023-07-09T01:34:51;3.75;;;2.17;;
3667;SDS011;24099;47.102;15.440;2023-07-09T01:37:20;3.25;;;2.13;;
3667;SDS011;24099;47.102;15.440;2023-07-09T01:39:50;3.47;;;2.20;;
3667;SDS011;24099;47.102;15.440;2023-07-09T01:42:20;3.40;;;2.33;;
3667;SDS011;24099;47.102;15.440;2023-07-09T01:44:48;2.88;;;1.85;;
3667;SDS011;24099;47.102;15.440;2023-07-09T01:47:16;2.83;;;2.08;;
3667;SDS011;24099;47.102;15.440;2023-07-09T01:49:44;3.40;;;2.10;;
3667;SDS011;24099;47.102;15.440;2023-07-09T01:52:12;2.10;;;1.83;;
3667;SDS011;24099;47.102;15.440;2023-07-09T01:54:41;5.18;;;2.33;;
3667;SDS011;24099;47.102;15.440;2023-07-09T01:57:16;5.32;;;2.70;;
3667;SDS011;24099;47.102;15.440;2023-07-09T01:59:48;3.70;;;2.33;;
3667;SDS011;24099;47.102;15.440;2023-07-09T02:02:16;4.13;;;2.20;;
3667;SDS011;24099;47.102;15.440;2023-07-09T02:04:47;3.13;;;1.95;;
3667;SDS011;24099;47.102;15.440;2023-07-09T02:07:15;6.07;;;2.17;;
3667;SDS011;24099;47.102;15.440;2023-07-09T02:09:43;3.38;;;2.00;;
3667;SDS011;24099;47.102;15.440;2023-07-09T02:12:11;2.60;;;1.90;;
3667;SDS011;24099;47.102;15.440;2023-07-09T02:14:43;2.83;;;1.70;;
3667;SDS011;24099;47.102;15.440;2023-07-09T02:17:11;3.90;;;1.80;;
3667;SDS011;24099;47.102;15.440;2023-07-09T02:19:39;2.65;;;2.00;;
3667;SDS011;24099;47.102;15.440;2023-07-09T02:22:07;3.47;;;2.22;;
3667;SDS011;24099;47.102;15.440;2023-07-09T02:24:34;4.80;;;2.40;;
3667;SDS011;24099;47.102;15.440;2023-07-09T02:27:04;3.50;;;2.05;;
3667;SDS011;24099;47.102;15.440;2023-07-09T02:29:32;2.25;;;1.90;;
3667;SDS011;24099;47.102;15.440;2023-07-09T02:32:01;6.22;;;2.45;;
3667;SDS011;24099;47.102;15.440;2023-07-09T02:34:29;2.47;;;2.10;;
3667;SDS011;24099;47.102;15.440;2023-07-09T02:36:58;3.90;;;2.17;;
3667;SDS011;24099;47.102;15.440;2023-07-09T02:39:26;4.00;;;2.13;;
3667;SDS011;24099;47.102;15.440;2023-07-09T02:41:53;2.55;;;1.90;;
3667;SDS011;24099;47.102;15.440;2023-07-09T02:44:21;2.90;;;1.73;;
3667;SDS011;24099;47.102;15.440;2023-07-09T02:46:49;4.28;;;2.30;;
3667;SDS011;24099;47.102;15.440;2023-07-09T02:49:18;2.15;;;1.95;;
3667;SDS011;24099;47.102;15.440;2023-07-09T02:51:46;6.82;;;2.03;;
3667;SDS011;24099;47.102;15.440;2023-07-09T02:54:13;2.80;;;2.10;;
3667;SDS011;24099;47.102;15.440;2023-07-09T02:56:41;2.63;;;2.03;;
3667;SDS011;24099;47.102;15.440;2023-07-09T02:59:08;3.78;;;2.38;;
3667;SDS011;24099;47.102;15.440;2023-07-09T03:01:36;3.72;;;2.10;;
3667;SDS011;24099;47.102;15.440;2023-07-09T03:04:04;3.80;;;2.40;;
3667;SDS011;24099;47.102;15.440;2023-07-09T03:06:32;2.70;;;2.08;;
3667;SDS011;24099;47.102;15.440;2023-07-09T03:09:00;3.25;;;2.10;;
3667;SDS011;24099;47.102;15.440;2023-07-09T03:11:28;4.72;;;2.40;;
3667;SDS011;24099;47.102;15.440;2023-07-09T03:13:56;2.72;;;1.88;;
3667;SDS011;24099;47.102;15.440;2023-07-09T03:16:25;3.33;;;2.05;;
3667;SDS011;24099;47.102;15.440;2023-07-09T03:18:53;2.85;;;2.10;;
3667;SDS011;24099;47.102;15.440;2023-07-09T03:21:21;5.50;;;2.47;;
3667;SDS011;24099;47.102;15.440;2023-07-09T03:23:49;3.58;;;2.28;;
3667;SDS011;24099;47.102;15.440;2023-07-09T03:26:17;5.03;;;2.53;;
3667;SDS011;24099;47.102;15.440;2023-07-09T03:28:45;4.35;;;2.47;;
3667;SDS011;24099;47.102;15.440;2023-07-09T03:31:12;5.88;;;2.72;;
3667;SDS011;24099;47.102;15.440;2023-07-09T03:33:40;3.67;;;2.10;;
3667;SDS011;24099;47.102;15.440;2023-07-09T03:36:09;6.97;;;2.45;;
3667;SDS011;24099;47.102;15.440;2023-07-09T03:38:36;5.05;;;2.55;;
3667;SDS011;24099;47.102;15.440;2023-07-09T03:41:05;2.80;;;2.03;;
3667;SDS011;24099;47.102;15.440;2023-07-09T03:43:32;2.60;;;2.22;;
3667;SDS011;24099;47.102;15.440;2023-07-09T03:46:00;2.50;;;2.17;;
3667;SDS011;24099;47.102;15.440;2023-07-09T03:48:27;3.15;;;2.10;;
3667;SDS011;24099;47.102;15.440;2023-07-09T03:50:55;4.13;;;2.50;;
3667;SDS011;24099;47.102;15.440;2023-07-09T03:53:22;3.33;;;2.10;;
3667;SDS011;24099;47.102;15.440;2023-07-09T03:55:51;4.80;;;2.72;;
3667;SDS011;24099;47.102;15.440;2023-07-09T03:58:20;4.13;;;2.75;;
3667;SDS011;24099;47.102;15.440;2023-07-09T04:00:48;3.75;;;2.30;;
3667;SDS011;24099;47.102;15.440;2023-07-09T04:03:15;3.47;;;2.20;;
3667;SDS011;24099;47.102;15.440;2023-07-09T04:05:43;3.92;;;2.22;;
3667;SDS011;24099;47.102;15.440;2023-07-09T04:08:10;3.58;;;2.33;;
3667;SDS011;24099;47.102;15.440;2023-07-09T04:10:40;4.00;;;2.65;;
3667;SDS011;24099;47.102;15.440;2023-07-09T04:13:07;2.97;;;2.05;;
3667;SDS011;24099;47.102;15.440;2023-07-09T04:15:36;7.70;;;2.03;;
3667;SDS011;24099;47.102;15.440;2023-07-09T04:18:03;3.78;;;2.13;;
3667;SDS011;24099;47.102;15.440;2023-07-09T04:20:31;3.25;;;2.60;;
3667;SDS011;24099;47.102;15.440;2023-07-09T04:23:00;3.38;;;2.05;;
3667;SDS011;24099;47.102;15.440;2023-07-09T04:25:28;3.50;;;2.38;;
3667;SDS011;24099;47.102;15.440;2023-07-09T04:27:55;5.15;;;2.50;;
3667;SDS011;24099;47.102;15.440;2023-07-09T04:30:23;3.05;;;2.28;;
3667;SDS011;24099;47.102;15.440;2023-07-09T04:32:51;3.53;;;2.55;;
3667;SDS011;24099;47.102;15.440;2023-07-09T04:35:19;2.90;;;2.20;;
3667;SDS011;24099;47.102;15.440;2023-07-09T04:37:46;4.15;;;2.30;;
3667;SDS011;24099;47.102;15.440;2023-07-09T04:40:13;3.85;;;2.03;;
3667;SDS011;24099;47.102;15.440;2023-07-09T04:42:41;3.88;;;2.50;;
3667;SDS011;24099;47.102;15.440;2023-07-09T04:45:09;2.47;;;2.13;;
3667;SDS011;24099;47.102;15.440;2023-07-09T04:47:38;3.65;;;2.30;;
3667;SDS011;24099;47.102;15.440;2023-07-09T04:50:07;3.63;;;2.33;;
3667;SDS011;24099;47.102;15.440;2023-07-09T04:52:36;3.63;;;2.47;;
3667;SDS011;24099;47.102;15.440;2023-07-09T04:55:03;4.72;;;2.47;;
3667;SDS011;24099;47.102;15.440;2023-07-09T04:57:32;5.78;;;2.80;;
3667;SDS011;24099;47.102;15.440;2023-07-09T05:00:00;3.60;;;2.53;;
3667;SDS011;24099;47.102;15.440;2023-07-09T05:02:29;4.88;;;2.63;;
3667;SDS011;24099;47.102;15.440;2023-07-09T05:04:57;5.03;;;2.30;;
3667;SDS011;24099;47.102;15.440;2023-07-09T05:07:26;4.68;;;2.60;;
3667;SDS011;24099;47.102;15.440;2023-07-09T05:09:53;3.10;;;2.75;;
3667;SDS011;24099;47.102;15.440;2023-07-09T05:12:21;3.75;;;2.55;;
3667;SDS011;24099;47.102;15.440;2023-07-09T05:17:15;5.47;;;2.70;;
3667;SDS011;24099;47.102;15.440;2023-07-09T05:19:42;3.30;;;2.58;;
3667;SDS011;24099;47.102;15.440;2023-07-09T05:22:10;4.03;;;2.72;;
3667;SDS011;24099;47.102;15.440;2023-07-09T05:24:39;9.40;;;3.30;;
3667;SDS011;24099;47.102;15.440;2023-07-09T05:27:06;4.18;;;2.83;;
3667;SDS011;24099;47.102;15.440;2023-07-09T05:29:34;3.50;;;2.55;;
3667;SDS011;24099;47.102;15.440;2023-07-09T05:32:01;7.43;;;2.80;;
3667;SDS011;24099;47.102;15.440;2023-07-09T05:34:29;3.72;;;2.83;;
3667;SDS011;24099;47.102;15.440;2023-07-09T05:36:56;3.25;;;2.50;;
3667;SDS011;24099;47.102;15.440;2023-07-09T05:39:23;4.25;;;2.90;;
3667;SDS011;24099;47.102;15.440;2023-07-09T05:41:52;3.90;;;2.45;;
3667;SDS011;24099;47.102;15.440;2023-07-09T05:44:19;4.82;;;3.03;;
3667;SDS011;24099;47.102;15.440;2023-07-09T05:46:46;4.13;;;2.72;;
3667;SDS011;24099;47.102;15.440;2023-07-09T05:49:14;4.05;;;2.72;;
3667;SDS011;24099;47.102;15.440;2023-07-09T05:51:41;3.80;;;2.42;;
3667;SDS011;24099;47.102;15.440;2023-07-09T05:54:09;4.85;;;2.78;;
3667;SDS011;24099;47.102;15.440;2023-07-09T05:56:36;3.95;;;2.78;;
3667;SDS011;24099;47.102;15.440;2023-07-09T05:59:05;4.00;;;2.90;;
3667;SDS011;24099;47.102;15.440;2023-07-09T06:01:33;6.35;;;3.40;;
3667;SDS011;24099;47.102;15.440;2023-07-09T06:04:00;7.47;;;2.97;;
3667;SDS011;24099;47.102;15.440;2023-07-09T06:06:28;4.30;;;2.83;;
3667;SDS011;24099;47.102;15.440;2023-07-09T06:08:56;3.55;;;2.58;;
3667;SDS011;24099;47.102;15.440;2023-07-09T06:11:23;3.15;;;2.45;;
3667;SDS011;24099;47.102;15.440;2023-07-09T06:13:51;6.28;;;2.75;;
3667;SDS011;24099;47.102;15.440;2023-07-09T06:16:19;4.43;;;2.80;;
3667;SDS011;24099;47.102;15.440;2023-07-09T06:18:47;6.07;;;3.08;;
3667;SDS011;24099;47.102;15.440;2023-07-09T06:21:14;6.85;;;2.80;;
3667;SDS011;24099;47.102;15.440;2023-07-09T06:23:41;5.97;;;2.75;;
3667;SDS011;24099;47.102;15.440;2023-07-09T06:26:09;4.03;;;2.35;;
3667;SDS011;24099;47.102;15.440;2023-07-09T06:28:36;5.30;;;2.72;;
3667;SDS011;24099;47.102;15.440;2023-07-09T06:31:04;4.15;;;2.78;;
3667;SDS011;24099;47.102;15.440;2023-07-09T06:33:32;5.47;;;3.00;;
3667;SDS011;24099;47.102;15.440;2023-07-09T06:36:00;5.18;;;3.15;;
3667;SDS011;24099;47.102;15.440;2023-07-09T06:38:28;3.60;;;2.90;;
3667;SDS011;24099;47.102;15.440;2023-07-09T06:40:55;7.38;;;3.28;;
3667;SDS011;24099;47.102;15.440;2023-07-09T06:43:23;5.90;;;2.97;;
3667;SDS011;24099;47.102;15.440;2023-07-09T06:45:51;5.82;;;2.90;;
3667;SDS011;24099;47.102;15.440;2023-07-09T06:48:19;4.53;;;2.80;;
3667;SDS011;24099;47.102;15.440;2023-07-09T06:50:48;5.63;;;3.03;;
3667;SDS011;24099;47.102;15.440;2023-07-09T06:53:15;4.82;;;2.90;;
3667;SDS011;24099;47.102;15.440;2023-07-09T06:55:43;4.43;;;2.72;;
3667;SDS011;24099;47.102;15.440;2023-07-09T06:58:10;6.82;;;3.13;;
3667;SDS011;24099;47.102;15.440;2023-07-09T07:00:38;4.65;;;2.97;;
3667;SDS011;24099;47.102;15.440;2023-07-09T07:03:05;5.45;;;3.00;;
3667;SDS011;24099;47.102;15.440;2023-07-09T07:05:33;4.80;;;3.00;;
3667;SDS011;24099;47.102;15.440;2023-07-09T07:08:02;5.43;;;3.05;;
3667;SDS011;24099;47.102;15.440;2023-07-09T07:10:31;4.78;;;3.00;;
3667;SDS011;24099;47.102;15.440;2023-07-09T07:12:59;4.28;;;2.88;;
3667;SDS011;24099;47.102;15.440;2023-07-09T07:15:26;6.60;;;2.90;;
3667;SDS011;24099;47.102;15.440;2023-07-09T07:17:54;5.57;;;3.08;;
3667;SDS011;24099;47.102;15.440;2023-07-09T07:20:21;3.75;;;2.88;;
3667;SDS011;24099;47.102;15.440;2023-07-09T07:22:49;5.03;;;3.00;;
3667;SDS011;24099;47.102;15.440;2023-07-09T07:25:18;4.28;;;2.67;;
3667;SDS011;24099;47.102;15.440;2023-07-09T07:27:45;5.28;;;3.03;;
3667;SDS011;24099;47.102;15.440;2023-07-09T07:30:12;5.07;;;2.70;;
3667;SDS011;24099;47.102;15.440;2023-07-09T07:32:43;4.22;;;2.88;;
3667;SDS011;24099;47.102;15.440;2023-07-09T07:35:11;3.67;;;2.72;;
3667;SDS011;24099;47.102;15.440;2023-07-09T07:37:41;5.15;;;2.50;;
3667;SDS011;24099;47.102;15.440;2023-07-09T07:40:08;4.88;;;2.83;;
3667;SDS011;24099;47.102;15.440;2023-07-09T07:42:37;4.20;;;3.05;;
3667;SDS011;24099;47.102;15.440;2023-07-09T07:45:05;4.88;;;2.65;;
3667;SDS011;24099;47.102;15.440;2023-07-09T07:47:33;6.68;;;2.67;;
3667;SDS011;24099;47.102;15.440;2023-07-09T07:50:01;3.97;;;2.67;;
3667;SDS011;24099;47.102;15.440;2023-07-09T07:52:29;3.85;;;2.72;;
3667;SDS011;24099;47.102;15.440;2023-07-09T07:54:56;3.53;;;2.40;;
3667;SDS011;24099;47.102;15.440;2023-07-09T07:57:24;3.92;;;2.63;;
3667;SDS011;24099;47.102;15.440;2023-07-09T07:59:53;4.20;;;2.63;;
3667;SDS011;24099;47.102;15.440;2023-07-09T08:02:21;6.18;;;2.78;;
3667;SDS011;24099;47.102;15.440;2023-07-09T08:04:48;7.85;;;2.83;;
3667;SDS011;24099;47.102;15.440;2023-07-09T08:07:16;3.65;;;2.47;;
3667;SDS011;24099;47.102;15.440;2023-07-09T08:09:44;3.15;;;2.70;;
3667;SDS011;24099;47.102;15.440;2023-07-09T08:12:13;4.70;;;2.83;;
3667;SDS011;24099;47.102;15.440;2023-07-09T08:14:41;4.05;;;3.00;;
3667;SDS011;24099;47.102;15.440;2023-07-09T08:17:10;3.63;;;2.80;;
3667;SDS011;24099;47.102;15.440;2023-07-09T08:19:44;6.85;;;3.42;;
3667;SDS011;24099;47.102;15.440;2023-07-09T08:22:12;4.47;;;2.75;;
3667;SDS011;24099;47.102;15.440;2023-07-09T08:24:40;6.07;;;3.03;;
3667;SDS011;24099;47.102;15.440;2023-07-09T08:27:07;4.45;;;2.75;;
3667;SDS011;24099;47.102;15.440;2023-07-09T08:29:35;3.78;;;2.65;;
3667;SDS011;24099;47.102;15.440;2023-07-09T08:32:03;5.63;;;3.20;;
3667;SDS011;24099;47.102;15.440;2023-07-09T08:34:32;4.85;;;2.72;;
3667;SDS011;24099;47.102;15.440;2023-07-09T08:36:59;4.82;;;2.90;;
3667;SDS011;24099;47.102;15.440;2023-07-09T08:39:27;3.92;;;3.10;;
3667;SDS011;24099;47.102;15.440;2023-07-09T08:41:56;4.47;;;2.92;;
3667;SDS011;24099;47.102;15.440;2023-07-09T08:44:31;4.55;;;3.03;;
3667;SDS011;24099;47.102;15.440;2023-07-09T08:47:02;4.82;;;2.70;;
3667;SDS011;24099;47.102;15.440;2023-07-09T08:49:37;4.90;;;2.92;;
3667;SDS011;24099;47.102;15.440;2023-07-09T08:52:07;3.47;;;2.50;;
3667;SDS011;24099;47.102;15.440;2023-07-09T08:54:37;4.18;;;2.67;;
3667;SDS011;24099;47.102;15.440;2023-07-09T08:57:09;4.32;;;2.63;;
3667;SDS011;24099;47.102;15.440;2023-07-09T08:59:41;6.33;;;2.63;;
3667;SDS011;24099;47.102;15.440;2023-07-09T09:02:14;4.78;;;2.83;;
3667;SDS011;24099;47.102;15.440;2023-07-09T09:04:44;4.68;;;2.80;;
3667;SDS011;24099;47.102;15.440;2023-07-09T09:07:14;4.45;;;2.58;;
3667;SDS011;24099;47.102;15.440;2023-07-09T09:09:44;4.00;;;2.60;;
3667;SDS011;24099;47.102;15.440;2023-07-09T09:12:15;4.28;;;2.63;;
3667;SDS011;24099;47.102;15.440;2023-07-09T09:14:44;3.22;;;2.50;;
3667;SDS011;24099;47.102;15.440;2023-07-09T09:17:13;2.58;;;2.17;;
3667;SDS011;24099;47.102;15.440;2023-07-09T09:19:44;3.33;;;2.30;;
3667;SDS011;24099;47.102;15.440;2023-07-09T09:22:15;3.13;;;1.80;;
3667;SDS011;24099;47.102;15.440;2023-07-09T09:24:49;5.25;;;2.47;;
3667;SDS011;24099;47.102;15.440;2023-07-09T09:27:21;4.50;;;2.33;;
3667;SDS011;24099;47.102;15.440;2023-07-09T09:29:48;2.50;;;2.00;;
3667;SDS011;24099;47.102;15.440;2023-07-09T09:32:20;2.92;;;2.30;;
3667;SDS011;24099;47.102;15.440;2023-07-09T09:34:49;3.40;;;2.47;;
3667;SDS011;24099;47.102;15.440;2023-07-09T09:37:22;3.63;;;2.47;;
3667;SDS011;24099;47.102;15.440;2023-07-09T09:39:50;5.68;;;2.90;;
3667;SDS011;24099;47.102;15.440;2023-07-09T09:42:18;4.55;;;2.40;;
3667;SDS011;24099;47.102;15.440;2023-07-09T09:44:47;3.47;;;2.40;;
3667;SDS011;24099;47.102;15.440;2023-07-09T09:47:15;4.25;;;2.58;;
3667;SDS011;24099;47.102;15.440;2023-07-09T09:49:43;3.83;;;2.78;;
3667;SDS011;24099;47.102;15.440;2023-07-09T09:52:12;4.07;;;3.00;;
3667;SDS011;24099;47.102;15.440;2023-07-09T09:54:52;4.28;;;2.65;;
3667;SDS011;24099;47.102;15.440;2023-07-09T09:57:22;3.75;;;2.65;;
3667;SDS011;24099;47.102;15.440;2023-07-09T09:59:50;2.90;;;2.50;;
3667;SDS011;24099;47.102;15.440;2023-07-09T10:02:18;3.55;;;2.30;;
3667;SDS011;24099;47.102;15.440;2023-07-09T10:04:46;3.63;;;2.67;;
3667;SDS011;24099;47.102;15.440;2023-07-09T10:07:16;3.53;;;2.33;;
3667;SDS011;24099;47.102;15.440;2023-07-09T10:09:50;4.10;;;2.72;;
3667;SDS011;24099;47.102;15.440;2023-07-09T10:12:23;2.53;;;2.20;;
3667;SDS011;24099;47.102;15.440;2023-07-09T10:14:56;7.82;;;2.95;;
3667;SDS011;24099;47.102;15.440;2023-07-09T10:17:30;2.78;;;2.10;;
3667;SDS011;24099;47.102;15.440;2023-07-09T10:20:04;5.13;;;2.70;;
3667;SDS011;24099;47.102;15.440;2023-07-09T10:22:38;2.58;;;2.13;;
3667;SDS011;24099;47.102;15.440;2023-07-09T10:25:12;4.90;;;2.72;;
3667;SDS011;24099;47.102;15.440;2023-07-09T10:27:41;4.03;;;2.55;;
3667;SDS011;24099;47.102;15.440;2023-07-09T10:30:17;5.68;;;2.40;;
3667;SDS011;24099;47.102;15.440;2023-07-09T10:32:49;4.47;;;2.83;;
3667;SDS011;24099;47.102;15.440;2023-07-09T10:35:22;3.53;;;2.20;;
3667;SDS011;24099;47.102;15.440;2023-07-09T10:37:56;4.18;;;2.10;;
3667;SDS011;24099;47.102;15.440;2023-07-09T10:40:30;4.13;;;2.30;;
3667;SDS011;24099;47.102;15.440;2023-07-09T10:42:59;3.00;;;2.30;;
3667;SDS011;24099;47.102;15.440;2023-07-09T10:45:28;3.20;;;2.60;;
3667;SDS011;24099;47.102;15.440;2023-07-09T10:47:58;4.22;;;2.55;;
3667;SDS011;24099;47.102;15.440;2023-07-09T10:50:27;4.13;;;2.50;;
3667;SDS011;24099;47.102;15.440;2023-07-09T10:52:57;2.78;;;2.25;;
3667;SDS011;24099;47.102;15.440;2023-07-09T10:55:29;5.13;;;2.55;;
3667;SDS011;24099;47.102;15.440;2023-07-09T10:58:02;3.05;;;2.20;;
3667;SDS011;24099;47.102;15.440;2023-07-09T11:00:33;3.35;;;2.50;;
3667;SDS011;24099;47.102;15.440;2023-07-09T11:03:04;3.03;;;2.50;;
3667;SDS011;24099;47.102;15.440;2023-07-09T11:05:35;3.47;;;2.42;;
3667;SDS011;24099;47.102;15.440;2023-07-09T11:08:03;2.60;;;2.20;;
3667;SDS011;24099;47.102;15.440;2023-07-09T11:10:34;3.88;;;2.40;;
3667;SDS011;24099;47.102;15.440;2023-07-09T11:13:05;3.17;;;2.20;;
3667;SDS011;24099;47.102;15.440;2023-07-09T11:15:39;2.45;;;1.95;;
3667;SDS011;24099;47.102;15.440;2023-07-09T11:18:11;3.17;;;2.00;;
3667;SDS011;24099;47.102;15.440;2023-07-09T11:20:42;3.85;;;2.25;;
3667;SDS011;24099;47.102;15.440;2023-07-09T11:23:17;3.97;;;2.30;;
3667;SDS011;24099;47.102;15.440;2023-07-09T11:25:45;3.78;;;2.40;;
3667;SDS011;24099;47.102;15.440;2023-07-09T11:28:14;2.83;;;2.40;;
3667;SDS011;24099;47.102;15.440;2023-07-09T11:30:46;2.95;;;2.33;;
3667;SDS011;24099;47.102;15.440;2023-07-09T11:33:17;3.35;;;2.50;;
3667;SDS011;24099;47.102;15.440;2023-07-09T11:35:46;4.53;;;2.40;;
3667;SDS011;24099;47.102;15.440;2023-07-09T11:38:17;2.50;;;2.05;;
3667;SDS011;24099;47.102;15.440;2023-07-09T11:40:45;2.65;;;2.10;;
3667;SDS011;24099;47.102;15.440;2023-07-09T11:43:26;4.32;;;2.25;;
3667;SDS011;24099;47.102;15.440;2023-07-09T11:45:54;2.85;;;1.98;;
3667;SDS011;24099;47.102;15.440;2023-07-09T11:48:23;3.40;;;2.30;;
3667;SDS011;24099;47.102;15.440;2023-07-09T11:50:52;3.10;;;2.25;;
3667;SDS011;24099;47.102;15.440;2023-07-09T11:53:25;3.58;;;2.30;;
3667;SDS011;24099;47.102;15.440;2023-07-09T11:55:55;2.60;;;2.13;;
3667;SDS011;24099;47.102;15.440;2023-07-09T11:58:22;2.35;;;1.95;;
3667;SDS011;24099;47.102;15.440;2023-07-09T12:00:52;3.45;;;2.25;;
3667;SDS011;24099;47.102;15.440;2023-07-09T12:03:22;2.47;;;2.03;;
3667;SDS011;24099;47.102;15.440;2023-07-09T12:05:51;3.20;;;2.08;;
3667;SDS011;24099;47.102;15.440;2023-07-09T12:08:20;2.65;;;1.92;;
3667;SDS011;24099;47.102;15.440;2023-07-09T12:10:49;2.55;;;1.65;;
3667;SDS011;24099;47.102;15.440;2023-07-09T12:13:16;6.68;;;2.50;;
3667;SDS011;24099;47.102;15.440;2023-07-09T12:15:44;3.72;;;2.40;;
3667;SDS011;24099;47.102;15.440;2023-07-09T12:18:13;2.30;;;2.00;;
3667;SDS011;24099;47.102;15.440;2023-07-09T12:20:42;3.00;;;2.20;;
3667;SDS011;24099;47.102;15.440;2023-07-09T12:23:15;3.88;;;1.98;;
3667;SDS011;24099;47.102;15.440;2023-07-09T12:25:47;4.53;;;2.20;;
3667;SDS011;24099;47.102;15.440;2023-07-09T12:28:28;3.00;;;2.03;;
3667;SDS011;24099;47.102;15.440;2023-07-09T12:30:56;2.25;;;2.00;;
3667;SDS011;24099;47.102;15.440;2023-07-09T12:33:26;2.25;;;2.03;;
3667;SDS011;24099;47.102;15.440;2023-07-09T12:35:55;3.33;;;2.53;;
3667;SDS011;24099;47.102;15.440;2023-07-09T12:38:24;2.90;;;2.00;;
3667;SDS011;24099;47.102;15.440;2023-07-09T12:40:52;3.90;;;2.30;;
3667;SDS011;24099;47.102;15.440;2023-07-09T12:43:23;3.60;;;2.28;;
3667;SDS011;24099;47.102;15.440;2023-07-09T12:45:52;2.30;;;2.00;;
3667;SDS011;24099;47.102;15.440;2023-07-09T12:48:24;2.15;;;1.80;;
3667;SDS011;24099;47.102;15.440;2023-07-09T12:50:55;2.15;;;1.83;;
3667;SDS011;24099;47.102;15.440;2023-07-09T12:53:23;2.58;;;1.92;;
3667;SDS011;24099;47.102;15.440;2023-07-09T12:55:51;3.22;;;1.95;;
3667;SDS011;24099;47.102;15.440;2023-07-09T12:58:22;2.20;;;2.00;;
3667;SDS011;24099;47.102;15.440;2023-07-09T13:00:51;4.30;;;2.10;;
3667;SDS011;24099;47.102;15.440;2023-07-09T13:03:20;2.22;;;2.03;;
3667;SDS011;24099;47.102;15.440;2023-07-09T13:05:51;2.75;;;2.03;;
3667;SDS011;24099;47.102;15.440;2023-07-09T13:08:20;3.78;;;2.22;;
3667;SDS011;24099;47.102;15.440;2023-07-09T13:10:48;5.93;;;2.17;;
3667;SDS011;24099;47.102;15.440;2023-07-09T13:13:18;3.47;;;2.17;;
3667;SDS011;24099;47.102;15.440;2023-07-09T13:15:47;2.65;;;2.00;;
3667;SDS011;24099;47.102;15.440;2023-07-09T13:18:15;3.10;;;2.20;;
3667;SDS011;24099;47.102;15.440;2023-07-09T13:20:44;3.25;;;1.92;;
3667;SDS011;24099;47.102;15.440;2023-07-09T13:23:14;3.58;;;2.10;;
3667;SDS011;24099;47.102;15.440;2023-07-09T13:25:44;2.30;;;1.73;;
3667;SDS011;24099;47.102;15.440;2023-07-09T13:28:14;2.80;;;1.92;;
3667;SDS011;24099;47.102;15.440;2023-07-09T13:30:46;2.65;;;1.90;;
3667;SDS011;24099;47.102;15.440;2023-07-09T13:33:13;2.25;;;1.90;;
3667;SDS011;24099;47.102;15.440;2023-07-09T13:35:43;4.82;;;2.28;;
3667;SDS011;24099;47.102;15.440;2023-07-09T13:38:14;2.95;;;1.83;;
3667;SDS011;24099;47.102;15.440;2023-07-09T13:40:44;2.92;;;2.20;;
3667;SDS011;24099;47.102;15.440;2023-07-09T13:43:12;2.75;;;2.28;;
3667;SDS011;24099;47.102;15.440;2023-07-09T13:45:40;3.78;;;1.98;;
3667;SDS011;24099;47.102;15.440;2023-07-09T13:48:10;4.20;;;2.80;;
3667;SDS011;24099;47.102;15.440;2023-07-09T13:50:39;3.42;;;2.42;;
3667;SDS011;24099;47.102;15.440;2023-07-09T13:53:09;3.08;;;2.22;;
3667;SDS011;24099;47.102;15.440;2023-07-09T13:55:41;4.47;;;2.33;;
3667;SDS011;24099;47.102;15.440;2023-07-09T13:58:13;3.05;;;2.10;;
3667;SDS011;24099;47.102;15.440;2023-07-09T14:00:42;3.85;;;2.10;;
3667;SDS011;24099;47.102;15.440;2023-07-09T14:03:12;2.58;;;2.00;;
3667;SDS011;24099;47.102;15.440;2023-07-09T14:05:41;3.05;;;1.80;;
3667;SDS011;24099;47.102;15.440;2023-07-09T14:08:08;2.60;;;1.90;;
3667;SDS011;24099;47.102;15.440;2023-07-09T14:10:36;2.30;;;2.10;;
3667;SDS011;24099;47.102;15.440;2023-07-09T14:13:04;3.28;;;2.17;;
3667;SDS011;24099;47.102;15.440;2023-07-09T14:15:33;3.60;;;2.22;;
3667;SDS011;24099;47.102;15.440;2023-07-09T14:18:01;2.40;;;2.20;;
3667;SDS011;24099;47.102;15.440;2023-07-09T14:20:28;2.55;;;2.05;;
3667;SDS011;24099;47.102;15.440;2023-07-09T14:22:55;3.05;;;2.17;;
3667;SDS011;24099;47.102;15.440;2023-07-09T14:25:24;3.47;;;2.15;;
3667;SDS011;24099;47.102;15.440;2023-07-09T14:27:53;2.70;;;2.20;;
3667;SDS011;24099;47.102;15.440;2023-07-09T14:30:21;2.38;;;2.10;;
3667;SDS011;24099;47.102;15.440;2023-07-09T14:32:51;4.30;;;2.00;;
3667;SDS011;24099;47.102;15.440;2023-07-09T14:35:19;3.67;;;2.10;;
3667;SDS011;24099;47.102;15.440;2023-07-09T14:37:48;5.22;;;1.83;;
3667;SDS011;24099;47.102;15.440;2023-07-09T14:40:16;4.30;;;2.38;;
3667;SDS011;24099;47.102;15.440;2023-07-09T14:42:44;3.80;;;2.13;;
3667;SDS011;24099;47.102;15.440;2023-07-09T14:45:16;3.40;;;2.40;;
3667;SDS011;24099;47.102;15.440;2023-07-09T14:47:44;4.85;;;2.17;;
3667;SDS011;24099;47.102;15.440;2023-07-09T14:50:13;2.65;;;2.00;;
3667;SDS011;24099;47.102;15.440;2023-07-09T14:52:41;4.25;;;2.13;;
3667;SDS011;24099;47.102;15.440;2023-07-09T14:55:12;3.60;;;2.10;;
3667;SDS011;24099;47.102;15.440;2023-07-09T14:57:40;4.15;;;2.05;;
3667;SDS011;24099;47.102;15.440;2023-07-09T15:00:12;4.57;;;2.17;;
3667;SDS011;24099;47.102;15.440;2023-07-09T15:02:40;4.00;;;2.03;;